Time;durP1;ratioP1;P1;durP2;ratioP2;P2;SDS_P1;SDS_P2;PMS_P1;PMS_P2;Temp;Humidity;BMP_temperature;BMP_pressure;BME280_temperature;BME280_humidity;BME280_pressure;Samples;Min_cycle;Max_cycle;Signal;HPM_P1;HPM_P2
2021/07/30 00:03:36;;;;;;;7.53;6.10;;;;;;;17.10;68.25;99353.52;255436;1102;115526;-66
2021/07/30 00:08:59;;;;;;;7.25;6.55;;;;;;;17.03;68.24;99342.28;256783;1103;116014;-66
2021/07/30 00:14:07;;;;;;;9.20;6.50;;;;;;;16.99;68.55;99345.83;253545;1104;115410;-66
2021/07/30 00:19:10;;;;;;;8.13;5.73;;;;;;;16.89;68.78;99341.34;257238;1104;114715;-67
2021/07/30 00:24:13;;;;;;;7.00;6.05;;;;;;;16.76;68.53;99342.03;257294;1104;115349;-66
2021/07/30 00:29:16;;;;;;;11.33;5.33;;;;;;;16.63;68.86;99345.35;256443;1103;115125;-67
2021/07/30 00:34:18;;;;;;;9.70;6.58;;;;;;;16.57;69.08;99351.86;255308;1103;116203;-66
2021/07/30 00:39:21;;;;;;;12.98;7.38;;;;;;;16.60;69.34;99354.80;253886;1104;115237;-66
2021/07/30 00:44:23;;;;;;;7.65;6.93;;;;;;;16.58;69.03;99343.50;256779;1096;116510;-65
2021/07/30 00:49:26;;;;;;;5.87;5.37;;;;;;;16.54;70.17;99350.53;257172;1104;115063;-66
2021/07/30 00:54:33;;;;;;;5.73;5.20;;;;;;;16.53;69.92;99346.23;257430;1104;115483;-65
2021/07/30 00:59:38;;;;;;;8.57;6.70;;;;;;;16.57;70.29;99354.55;257384;1104;115421;-66
2021/07/30 01:04:41;;;;;;;7.73;6.97;;;;;;;16.63;70.39;99358.81;257251;1103;115599;-66
2021/07/30 01:09:50;;;;;;;7.48;6.60;;;;;;;16.69;70.42;99345.05;257246;1103;115408;-66
2021/07/30 01:14:54;;;;;;;9.50;5.90;;;;;;;16.74;70.32;99357.67;257232;1103;116028;-66
2021/07/30 01:19:57;;;;;;;9.83;7.20;;;;;;;16.79;70.43;99346.86;257287;1104;115211;-66
2021/07/30 01:25:00;;;;;;;7.20;6.40;;;;;;;16.90;69.98;99345.64;257136;1103;115713;-67
2021/07/30 01:30:04;;;;;;;6.40;5.80;;;;;;;16.85;69.87;99345.69;255730;1104;116120;-66
2021/07/30 01:35:08;;;;;;;10.87;7.60;;;;;;;16.74;70.08;99338.83;257176;1104;116100;-66
2021/07/30 01:40:12;;;;;;;7.15;6.48;;;;;;;16.64;69.95;99342.41;256027;1103;116129;-66
2021/07/30 01:45:15;;;;;;;8.57;6.70;;;;;;;16.58;69.96;99345.39;256799;1104;115903;-66
2021/07/30 01:50:18;;;;;;;8.85;6.35;;;;;;;16.47;70.20;99333.94;255438;1104;116490;-66
2021/07/30 01:55:24;;;;;;;8.98;7.53;;;;;;;16.39;70.43;99340.73;253996;1104;116092;-66
2021/07/30 02:00:28;;;;;;;7.40;6.70;;;;;;;16.38;70.24;99344.50;255461;1103;115945;-65
2021/07/30 02:05:30;;;;;;;8.48;7.58;;;;;;;16.24;70.17;99345.41;255708;1103;115710;-65
2021/07/30 02:10:34;;;;;;;8.13;6.63;;;;;;;16.11;71.04;99349.56;256866;1103;117774;-65
2021/07/30 02:15:37;;;;;;;13.70;7.25;;;;;;;16.12;70.60;99348.48;256053;1103;115199;-66
2021/07/30 02:20:41;;;;;;;7.90;7.13;;;;;;;16.08;70.60;99352.81;256660;1104;115639;-66
2021/07/30 02:25:44;;;;;;;10.68;7.48;;;;;;;16.11;71.09;99349.56;254538;1094;115547;-66
2021/07/30 02:30:48;;;;;;;8.18;6.65;;;;;;;16.07;70.84;99357.38;256402;1097;114567;-66
2021/07/30 02:35:52;;;;;;;13.60;6.55;;;;;;;16.05;71.08;99353.36;254148;1104;211819;-66
2021/07/30 02:40:55;;;;;;;8.50;7.55;;;;;;;16.03;70.83;99350.95;255286;1103;115792;-66
2021/07/30 02:45:58;;;;;;;9.95;7.88;;;;;;;15.91;70.49;99355.86;256516;1104;116897;-65
2021/07/30 02:51:02;;;;;;;11.20;7.57;;;;;;;15.90;70.71;99338.13;256775;1104;115887;-66
2021/07/30 02:56:06;;;;;;;12.48;7.83;;;;;;;15.92;71.03;99343.23;256289;1103;116225;-66
2021/07/30 03:01:10;;;;;;;10.30;7.15;;;;;;;15.86;71.38;99353.23;257315;1104;116973;-65
2021/07/30 03:06:14;;;;;;;10.38;7.05;;;;;;;15.80;70.59;99347.08;257194;1103;116276;-66
2021/07/30 03:11:17;;;;;;;7.30;6.60;;;;;;;15.73;70.69;99343.09;257068;1103;117902;-65
2021/07/30 03:16:20;;;;;;;11.23;7.87;;;;;;;15.67;70.48;99347.68;257179;1103;115905;-66
2021/07/30 03:21:24;;;;;;;10.45;7.48;;;;;;;15.62;69.63;99345.02;257148;1103;116804;-66
2021/07/30 03:26:27;;;;;;;7.08;6.38;;;;;;;15.55;70.63;99355.25;257305;1103;115644;-64
2021/07/30 03:31:30;;;;;;;10.18;7.43;;;;;;;15.56;70.89;99359.58;257277;1104;115303;-64
2021/07/30 03:36:33;;;;;;;9.38;7.60;;;;;;;15.54;70.58;99353.65;257318;1104;115648;-64
2021/07/30 03:41:37;;;;;;;8.25;7.45;;;;;;;15.55;70.81;99355.25;256500;1102;116456;-65
2021/07/30 03:46:40;;;;;;;18.95;7.93;;;;;;;15.66;70.96;99348.77;256632;1103;115533;-64
2021/07/30 03:51:44;;;;;;;25.13;7.07;;;;;;;15.78;71.13;99351.13;257122;1102;115533;-65
2021/07/30 03:56:48;;;;;;;8.20;6.50;;;;;;;16.03;71.07;99355.53;255675;1104;117279;-65
2021/07/30 04:01:52;;;;;;;13.55;7.48;;;;;;;16.10;70.41;99356.83;253988;1104;115242;-65
2021/07/30 04:06:55;;;;;;;11.30;8.15;;;;;;;16.20;70.63;99360.53;256404;1104;115218;-65
2021/07/30 04:12:00;;;;;;;10.20;8.20;;;;;;;16.25;71.08;99368.53;255541;1103;115445;-64
2021/07/30 04:17:03;;;;;;;11.18;8.38;;;;;;;16.65;70.69;99362.05;256409;1103;115606;-65
2021/07/30 04:22:07;;;;;;;9.95;7.23;;;;;;;16.86;70.59;99363.45;255867;1103;115159;-65
2021/07/30 04:27:11;;;;;;;10.20;8.30;;;;;;;17.01;70.57;99360.61;255039;1103;114591;-64
2021/07/30 04:32:15;;;;;;;9.53;8.05;;;;;;;17.16;70.33;99365.81;256505;1104;115341;-66
2021/07/30 04:37:17;;;;;;;8.35;7.45;;;;;;;17.37;70.16;99368.28;255491;1097;115270;-66
2021/07/30 04:42:20;;;;;;;9.30;7.28;;;;;;;17.33;69.79;99370.75;254427;1104;115101;-66
2021/07/30 04:47:23;;;;;;;7.23;6.53;;;;;;;17.49;69.87;99376.73;257005;1102;114278;-66
2021/07/30 04:52:26;;;;;;;7.40;6.70;;;;;;;17.96;69.40;99377.78;256425;1103;115899;-66
2021/07/30 04:57:29;;;;;;;11.73;7.13;;;;;;;18.20;68.97;99370.39;255084;1104;115007;-64
2021/07/30 05:02:32;;;;;;;6.00;5.50;;;;;;;18.64;68.73;99367.28;256302;1103;114476;-65
2021/07/30 05:07:36;;;;;;;12.75;7.43;;;;;;;18.62;68.50;99371.38;255044;1103;116091;-65
2021/07/30 05:12:40;;;;;;;9.55;7.33;;;;;;;18.64;68.32;99366.48;254605;1103;115394;-65
2021/07/30 05:17:43;;;;;;;7.97;6.97;;;;;;;19.39;67.44;99364.22;257285;1104;115067;-66
2021/07/30 05:22:45;;;;;;;7.98;5.98;;;;;;;21.88;64.37;99360.64;256942;1103;114943;-66
2021/07/30 05:27:48;;;;;;;7.73;6.55;;;;;;;25.61;58.71;99366.84;257052;1103;115358;-67
2021/07/30 05:32:51;;;;;;;8.10;6.70;;;;;;;27.99;56.08;99370.36;257146;1103;116650;-68
2021/07/30 05:37:53;;;;;;;8.30;6.88;;;;;;;29.88;52.90;99371.71;257270;1104;115583;-69
2021/07/30 05:42:57;;;;;;;6.03;5.33;;;;;;;32.33;49.29;99376.62;257391;1103;114471;-69
2021/07/30 05:48:01;;;;;;;4.53;4.08;;;;;;;34.12;45.42;99383.72;257324;1102;116530;-66
2021/07/30 05:53:05;;;;;;;4.30;4.00;;;;;;;34.13;43.48;99385.29;257353;1104;115756;-66
2021/07/30 05:58:08;;;;;;;9.15;4.03;;;;;;;34.87;41.51;99389.66;257280;1103;115999;-66
2021/07/30 06:03:11;;;;;;;3.63;3.33;;;;;;;35.83;39.27;99393.59;255561;1104;115123;-67
2021/07/30 06:08:14;;;;;;;5.08;4.10;;;;;;;35.55;38.59;99395.44;257058;1104;114283;-68
2021/07/30 06:13:18;;;;;;;3.40;3.07;;;;;;;33.97;38.43;99394.03;257017;1104;115667;-67
2021/07/30 06:18:22;;;;;;;5.60;4.00;;;;;;;33.39;39.11;99400.84;255028;1097;115591;-66
2021/07/30 06:23:26;;;;;;;3.55;3.33;;;;;;;31.99;39.06;99389.05;254412;1103;115618;-66
2021/07/30 06:28:29;;;;;;;3.55;3.23;;;;;;;30.68;39.66;99397.05;255115;1104;114960;-68
2021/07/30 06:33:33;;;;;;;4.48;4.18;;;;;;;29.65;40.81;99388.28;253989;1103;115216;-68
2021/07/30 06:38:36;;;;;;;5.67;3.77;;;;;;;28.87;41.88;99403.45;253709;1096;117264;-68
2021/07/30 06:43:39;;;;;;;4.45;4.10;;;;;;;28.33;42.52;99384.38;253825;1096;117169;-69
2021/07/30 06:48:42;;;;;;;5.25;3.93;;;;;;;27.74;43.16;99386.27;254036;1103;115371;-68
2021/07/30 06:53:46;;;;;;;9.55;4.68;;;;;;;27.39;43.19;99386.20;255025;1097;115443;-69
2021/07/30 06:58:53;;;;;;;4.43;3.93;;;;;;;27.01;42.75;99384.09;253982;1097;116034;-69
2021/07/30 07:03:59;;;;;;;4.37;3.97;;;;;;;27.00;43.37;99378.98;254053;1103;115627;-67
2021/07/30 07:09:03;;;;;;;6.90;4.20;;;;;;;27.23;43.60;99377.20;254737;1103;115543;-67
2021/07/30 07:14:06;;;;;;;6.03;4.13;;;;;;;28.16;42.54;99374.60;253905;1097;115101;-67
2021/07/30 07:19:11;;;;;;;3.63;3.10;;;;;;;29.12;42.28;99373.69;253842;1104;116280;-67
2021/07/30 07:24:14;;;;;;;8.10;3.48;;;;;;;30.01;41.08;99372.28;253825;1104;115164;-69
2021/07/30 07:29:16;;;;;;;3.48;3.03;;;;;;;30.11;40.33;99364.18;253938;1102;115657;-67
2021/07/30 07:34:20;;;;;;;3.73;2.88;;;;;;;30.51;38.68;99365.42;254098;1096;114370;-67
2021/07/30 07:39:24;;;;;;;3.30;3.00;;;;;;;30.71;39.21;99366.03;257077;1104;116375;-68
2021/07/30 07:44:27;;;;;;;5.03;3.70;;;;;;;30.75;39.16;99367.66;257022;1103;115376;-67
2021/07/30 07:49:31;;;;;;;5.57;2.90;;;;;;;30.64;38.95;99369.50;257130;1103;115755;-68
2021/07/30 07:54:34;;;;;;;3.40;3.10;;;;;;;30.66;39.50;99364.41;257201;1104;117268;-67
2021/07/30 07:59:37;;;;;;;3.03;2.70;;;;;;;30.75;39.05;99367.66;257438;1101;117415;-67
2021/07/30 08:04:40;;;;;;;5.03;3.20;;;;;;;30.80;38.31;99372.03;257207;1104;115105;-67
2021/07/30 08:09:42;;;;;;;3.10;2.90;;;;;;;30.48;37.34;99364.22;257294;1103;116944;-67
2021/07/30 08:14:46;;;;;;;2.78;2.45;;;;;;;30.36;38.25;99356.21;256174;1104;116338;-67
2021/07/30 08:19:51;;;;;;;4.35;3.23;;;;;;;30.30;38.08;99365.17;254430;1096;115680;-67
2021/07/30 08:24:53;;;;;;;;;;;;;;;30.39;37.75;99347.21;253684;1104;117110;-67
2021/07/30 08:29:56;;;;;;;3.88;2.95;;;;;;;30.17;37.63;99359.14;254674;1104;103319;-68
2021/07/30 08:34:58;;;;;;;5.73;3.18;;;;;;;29.92;37.98;99347.83;253743;1104;116556;-67
2021/07/30 08:40:02;;;;;;;3.60;2.93;;;;;;;30.04;37.63;99347.59;253520;1104;115874;-64
2021/07/30 08:45:08;;;;;;;8.53;3.20;;;;;;;30.13;37.71;99336.32;253540;1104;116643;-68
2021/07/30 08:50:12;;;;;;;2.80;2.23;;;;;;;30.00;37.09;99354.20;253472;1102;116072;-67
2021/07/30 08:55:16;;;;;;;3.35;2.43;;;;;;;29.96;37.38;99358.86;253514;1098;115509;-67
2021/07/30 09:00:19;;;;;;;3.60;2.48;;;;;;;29.80;36.53;99362.58;253694;1104;115434;-68
2021/07/30 09:05:35;;;;;;;2.20;2.05;;;;;;;29.66;35.88;99353.34;255075;1103;114650;-67
2021/07/30 09:10:41;;;;;;;2.73;2.45;;;;;;;29.53;36.55;99355.53;254555;1104;115464;-68
2021/07/30 09:15:47;;;;;;;6.55;2.88;;;;;;;29.54;37.04;99348.88;256254;1104;115129;-68
2021/07/30 09:20:52;;;;;;;2.25;2.10;;;;;;;29.32;35.92;99330.48;253723;1104;114585;-66
2021/07/30 09:25:55;;;;;;;;;;;;;;;29.21;37.43;99321.28;254129;1103;115402;-66
2021/07/30 09:30:58;;;;;;;3.03;2.83;;;;;;;28.96;36.98;99318.95;256612;1103;102694;-66
2021/07/30 09:36:02;;;;;;;4.78;2.30;;;;;;;29.15;36.99;99316.11;253707;1104;116911;-67
2021/07/30 09:41:13;;;;;;;3.15;2.88;;;;;;;29.37;36.85;99302.69;253767;1104;115066;-67
2021/07/30 09:46:16;;;;;;;5.63;2.70;;;;;;;29.46;36.51;99290.31;253838;1104;114648;-67
2021/07/30 09:51:20;;;;;;;3.08;2.88;;;;;;;29.65;36.65;99294.09;253707;1104;114835;-68
2021/07/30 09:56:25;;;;;;;4.43;2.48;;;;;;;29.37;35.64;99294.45;257112;1104;116021;-69
2021/07/30 10:01:29;;;;;;;;;;;;;;;29.46;35.51;99295.01;257131;1103;115484;-68
2021/07/30 10:06:33;;;;;;;4.73;2.28;;;;;;;29.40;36.01;99279.98;258010;1103;102999;-68
2021/07/30 10:11:39;;;;;;;3.03;2.30;;;;;;;29.33;35.62;99288.94;257286;1104;114815;-68
2021/07/30 10:17:07;;;;;;;4.63;2.55;;;;;;;29.33;35.79;99277.95;257212;1104;115556;-69
2021/07/30 10:22:14;;;;;;;2.90;2.17;;;;;;;29.30;35.71;99272.41;254114;1102;115545;-68
2021/07/30 10:27:20;;;;;;;5.40;2.97;;;;;;;29.30;35.62;99262.22;253736;1103;115879;-67
2021/07/30 10:32:43;;;;;;;2.50;2.30;;;;;;;29.44;35.58;99253.40;253652;1104;114803;-69
2021/07/30 10:37:47;;;;;;;13.73;2.65;;;;;;;29.48;35.30;99254.23;255943;1104;114864;-68
2021/07/30 10:43:19;;;;;;;2.83;2.63;;;;;;;29.65;35.25;99245.45;255765;1104;115125;-68
2021/07/30 10:48:22;;;;;;;3.20;2.20;;;;;;;29.35;34.64;99239.91;253641;1097;115131;-66
2021/07/30 10:58:40;;;;;;;3.53;2.68;;;;;;;29.33;35.67;99227.75;253661;1103;115773;-67
2021/07/30 11:03:53;;;;;;;2.40;2.20;;;;;;;29.40;34.47;99217.66;254183;1104;116122;-68
2021/07/30 11:09:06;;;;;;;4.10;1.43;;;;;;;29.38;34.72;99213.66;255570;1103;114808;-68
2021/07/30 11:14:22;;;;;;;3.33;2.27;;;;;;;28.98;33.96;99211.57;253871;1102;115711;-67
2021/07/30 11:19:42;;;;;;;1.60;1.50;;;;;;;29.19;35.18;99200.88;253823;1104;115402;-68
2021/07/30 11:24:51;;;;;;;3.90;2.55;;;;;;;29.27;35.03;99207.27;253831;1097;114954;-67
2021/07/30 11:29:57;;;;;;;3.55;3.18;;;;;;;29.26;34.88;99200.98;253767;1102;114904;-68
2021/07/30 11:35:09;;;;;;;2.70;2.48;;;;;;;29.14;33.89;99199.25;253993;1103;115491;-69
2021/07/30 11:40:17;;;;;;;3.45;2.15;;;;;;;29.02;34.71;99206.93;255859;1103;115538;-68
2021/07/30 11:45:21;;;;;;;2.63;2.28;;;;;;;29.00;34.53;99195.53;253903;1103;115262;-67
2021/07/30 11:50:26;;;;;;;4.53;2.90;;;;;;;28.99;35.05;99196.70;253623;1097;114799;-67
2021/07/30 11:55:29;;;;;;;2.78;2.15;;;;;;;29.01;34.97;99200.65;253836;1097;114711;-68
2021/07/30 12:00:33;;;;;;;2.10;1.60;;;;;;;28.95;34.10;99188.41;253802;1096;115374;-67
2021/07/30 12:05:39;;;;;;;2.70;2.60;;;;;;;28.86;34.66;99179.64;253629;1103;114633;-68
2021/07/30 12:10:43;;;;;;;7.60;2.73;;;;;;;28.86;34.98;99179.64;257150;1103;114436;-68
2021/07/30 12:15:46;;;;;;;3.50;2.33;;;;;;;28.85;34.77;99178.06;257170;1104;115716;-66
2021/07/30 12:20:50;;;;;;;6.35;2.60;;;;;;;28.98;35.38;99168.46;257117;1104;115243;-69
2021/07/30 12:25:53;;;;;;;2.30;2.10;;;;;;;29.21;34.82;99167.58;257035;1103;117867;-68
2021/07/30 12:31:10;;;;;;;3.10;2.80;;;;;;;29.23;35.51;99162.50;257184;1104;116304;-69
2021/07/30 12:36:16;;;;;;;3.35;2.35;;;;;;;29.24;34.88;99153.90;255367;1103;114868;-69
2021/07/30 12:41:20;;;;;;;4.20;2.00;;;;;;;29.14;34.49;99162.78;253751;1104;114808;-68
2021/07/30 12:46:35;;;;;;;4.07;2.03;;;;;;;29.02;34.77;99147.36;253695;1104;114716;-68
2021/07/30 12:51:42;;;;;;;2.50;2.40;;;;;;;29.06;34.19;99152.86;253654;1104;115262;-68
2021/07/30 12:56:56;;;;;;;45.08;23.68;;;;;;;28.91;34.31;99151.89;253650;1099;114874;-68
2021/07/30 13:01:59;;;;;;;77.35;55.38;;;;;;;28.88;34.73;99140.87;253648;1104;115115;-68
2021/07/30 13:07:03;;;;;;;8.03;6.78;;;;;;;28.91;35.02;99129.16;253808;1100;116499;-69
2021/07/30 13:12:07;;;;;;;11.08;9.33;;;;;;;28.81;34.56;99123.14;256616;1103;115237;-68
2021/07/30 13:17:10;;;;;;;4.85;4.45;;;;;;;28.93;34.83;99124.09;253720;1104;115019;-68
2021/07/30 13:22:14;;;;;;;;;;;;;;;28.93;34.62;99107.63;253885;1096;115304;-68
2021/07/30 13:27:17;;;;;;;4.07;2.77;;;;;;;28.77;34.15;99105.02;254472;1096;103096;-68
2021/07/30 13:32:21;;;;;;;6.73;5.70;;;;;;;28.72;34.62;99113.59;253792;1103;115661;-68
2021/07/30 13:37:25;;;;;;;4.70;2.87;;;;;;;28.75;34.56;99113.63;253739;1104;115332;-70
2021/07/30 13:42:29;;;;;;;6.03;4.05;;;;;;;28.62;34.62;99103.26;253776;1104;115059;-69
2021/07/30 13:47:32;;;;;;;5.93;3.85;;;;;;;28.62;35.04;99106.00;253766;1104;115266;-68
2021/07/30 13:52:37;;;;;;;8.88;3.15;;;;;;;28.62;35.29;99097.77;254335;1104;117140;-68
2021/07/30 13:57:40;;;;;;;5.73;5.28;;;;;;;28.40;34.84;99094.73;253877;1104;116839;-68
2021/07/30 14:02:44;;;;;;;7.00;3.00;;;;;;;28.24;34.90;99088.59;253787;1104;115903;-68
2021/07/30 14:07:48;;;;;;;5.33;4.75;;;;;;;28.22;35.35;99082.69;253702;1104;116910;-68
2021/07/30 14:12:53;;;;;;;47.80;43.28;;;;;;;28.21;35.62;99083.84;255580;1103;115594;-69
2021/07/30 14:17:56;;;;;;;21.40;19.60;;;;;;;28.18;35.80;99081.81;254136;1103;116151;-68
2021/07/30 14:23:00;;;;;;;6.40;3.25;;;;;;;28.09;34.78;99071.13;253725;1104;117377;-69
2021/07/30 14:28:04;;;;;;;21.43;20.00;;;;;;;28.00;34.92;99075.27;253836;1104;116592;-67
2021/07/30 14:33:07;;;;;;;17.68;16.08;;;;;;;27.93;35.35;99080.63;255902;1104;117778;-68
2021/07/30 14:38:10;;;;;;;5.20;4.80;;;;;;;27.96;35.37;99074.41;257209;1104;116408;-68
2021/07/30 14:43:14;;;;;;;14.13;12.68;;;;;;;27.94;35.20;99065.77;257378;1104;116144;-68
2021/07/30 14:48:18;;;;;;;3.10;2.43;;;;;;;27.81;34.98;99059.70;256237;1098;116028;-68
2021/07/30 14:53:21;;;;;;;8.05;6.73;;;;;;;27.73;35.27;99050.58;253681;1097;116192;-69
2021/07/30 14:58:26;;;;;;;9.70;8.80;;;;;;;27.72;35.59;99043.52;257078;1103;115371;-70
2021/07/30 15:03:29;;;;;;;;;;;;;;;27.69;35.59;99041.50;257120;1103;115815;-68
2021/07/30 15:08:34;;;;;;;24.13;21.28;;;;;;;27.47;35.47;99045.80;255938;1096;103117;-69
2021/07/30 15:13:37;;;;;;;103.87;81.33;;;;;;;27.37;35.48;99043.64;253780;1103;116301;-68
2021/07/30 15:18:41;;;;;;;18.30;11.40;;;;;;;27.28;35.58;99036.81;253942;1104;116233;-68
2021/07/30 15:23:46;;;;;;;12.23;7.90;;;;;;;27.19;35.91;99036.27;253861;1104;116411;-68
2021/07/30 15:28:50;;;;;;;3.70;3.15;;;;;;;27.07;36.06;99032.53;253581;1101;116373;-68
2021/07/30 15:33:55;;;;;;;3.78;2.45;;;;;;;26.93;35.75;99040.41;253644;1104;115476;-68
2021/07/30 15:38:58;;;;;;;5.58;2.80;;;;;;;26.85;36.61;99033.23;253684;1104;115872;-68
2021/07/30 15:44:06;;;;;;;18.70;12.23;;;;;;;26.83;36.75;99036.33;253855;1104;115916;-68
2021/07/30 15:49:11;;;;;;;5.75;4.98;;;;;;;26.84;36.73;99026.19;255662;1104;116700;-68
2021/07/30 15:54:14;;;;;;;5.63;4.80;;;;;;;26.86;36.35;99017.62;253720;1104;115492;-68
2021/07/30 15:59:17;;;;;;;10.18;6.63;;;;;;;26.74;36.40;99010.34;253786;1104;117138;-68
2021/07/30 16:04:21;;;;;;;18.10;13.00;;;;;;;26.63;36.21;99017.52;256041;1104;116297;-68
2021/07/30 16:09:24;;;;;;;10.43;5.77;;;;;;;26.59;36.53;99011.21;255249;1103;115492;-67
2021/07/30 16:14:28;;;;;;;4.45;3.50;;;;;;;26.51;36.25;99010.27;256072;1097;117600;-68
2021/07/30 16:19:32;;;;;;;4.25;3.95;;;;;;;26.34;36.24;99011.44;254815;1104;117246;-69
2021/07/30 16:24:35;;;;;;;12.90;7.90;;;;;;;26.30;36.87;99018.77;257421;1104;117398;-68
2021/07/30 16:29:38;;;;;;;10.70;4.78;;;;;;;26.23;37.81;99013.14;257334;1103;114744;-68
2021/07/30 16:34:41;;;;;;;3.20;2.00;;;;;;;26.07;37.34;99006.89;257180;1103;114887;-68
2021/07/30 16:39:45;;;;;;;5.53;2.80;;;;;;;25.95;37.50;99007.02;257079;1104;115844;-68
2021/07/30 16:44:48;;;;;;;5.55;3.63;;;;;;;25.77;37.86;99010.10;257058;1104;115606;-68
2021/07/30 16:49:52;;;;;;;5.77;2.93;;;;;;;25.69;38.22;99013.80;257092;1103;115099;-68
2021/07/30 16:54:56;;;;;;;3.23;2.40;;;;;;;25.66;38.73;99005.55;257207;1103;115230;-68
2021/07/30 16:59:59;;;;;;;5.23;4.48;;;;;;;25.64;38.92;99013.29;257167;1103;114792;-68
2021/07/30 17:05:01;;;;;;;12.27;2.93;;;;;;;25.53;38.94;99015.70;257310;1104;115352;-68
2021/07/30 17:10:05;;;;;;;4.23;3.47;;;;;;;25.46;39.22;99007.34;257316;1104;115827;-68
2021/07/30 17:15:08;;;;;;;7.80;4.03;;;;;;;25.32;40.48;99002.32;257265;1102;115072;-68
2021/07/30 17:20:12;;;;;;;5.23;4.60;;;;;;;25.18;41.30;99001.94;253734;1096;115320;-68
2021/07/30 17:25:16;;;;;;;4.40;3.03;;;;;;;25.02;41.66;99007.37;253670;1103;115136;-68
2021/07/30 17:30:20;;;;;;;7.98;5.90;;;;;;;24.85;42.38;99004.89;253684;1103;114927;-68
2021/07/30 17:35:23;;;;;;;4.70;3.58;;;;;;;24.64;43.33;99004.30;253979;1104;115555;-68
2021/07/30 17:40:30;;;;;;;24.48;7.75;;;;;;;24.40;43.79;99000.51;255453;1102;115719;-68
2021/07/30 17:45:36;;;;;;;2.70;2.50;;;;;;;24.16;45.14;99001.29;254746;1103;115195;-67
2021/07/30 17:50:39;;;;;;;4.35;3.63;;;;;;;23.92;45.83;98995.08;254156;1097;115610;-68
2021/07/30 17:55:43;;;;;;;4.68;3.05;;;;;;;23.70;46.16;98994.41;255496;1103;114986;-68
2021/07/30 18:00:45;;;;;;;3.00;2.80;;;;;;;23.47;46.82;99007.62;254748;1103;115440;-66
2021/07/30 18:05:49;;;;;;;4.03;3.10;;;;;;;23.28;47.78;99001.89;255417;1097;115047;-68
2021/07/30 18:10:52;;;;;;;3.90;2.68;;;;;;;23.06;48.42;99003.09;257083;1104;115855;-69
2021/07/30 18:15:56;;;;;;;6.30;2.48;;;;;;;22.81;48.93;99004.13;256869;1103;115563;-69
2021/07/30 18:21:00;;;;;;;2.75;2.53;;;;;;;22.53;49.48;99003.05;254364;1103;115322;-68
2021/07/30 18:26:04;;;;;;;3.37;2.90;;;;;;;22.30;50.31;98997.95;257148;1103;115331;-69
2021/07/30 18:31:08;;;;;;;3.93;3.07;;;;;;;22.11;51.46;99022.01;254205;1102;115316;-68
2021/07/30 18:36:15;;;;;;;3.33;2.33;;;;;;;21.88;52.09;99026.09;256067;1103;114917;-68
2021/07/30 18:41:19;;;;;;;4.15;3.53;;;;;;;21.66;52.56;99027.95;255434;1104;115832;-67
2021/07/30 18:46:24;;;;;;;3.33;3.03;;;;;;;21.43;53.03;99031.98;257069;1103;114400;-68
2021/07/30 18:51:27;;;;;;;2.75;2.55;;;;;;;21.16;53.40;99033.94;257031;1103;115224;-67
2021/07/30 18:56:31;;;;;;;3.23;2.93;;;;;;;20.88;53.74;99040.02;257094;1104;115113;-69
2021/07/30 19:01:34;;;;;;;3.50;2.97;;;;;;;20.58;54.26;99036.34;257230;1102;114790;-69
2021/07/30 19:06:40;;;;;;;6.10;3.58;;;;;;;20.25;54.98;99042.16;257107;1103;116365;-67
2021/07/30 19:11:44;;;;;;;5.50;2.98;;;;;;;19.97;55.94;99038.91;257017;1104;115412;-68
2021/07/30 19:16:47;;;;;;;3.23;2.85;;;;;;;19.83;56.57;99039.03;257123;1103;115964;-66
2021/07/30 19:21:51;;;;;;;3.18;2.93;;;;;;;19.61;56.91;99041.77;257003;1104;115199;-68
2021/07/30 19:26:57;;;;;;;3.58;3.18;;;;;;;19.34;57.19;99037.31;257167;1103;115386;-67
2021/07/30 19:32:03;;;;;;;6.20;2.67;;;;;;;19.10;57.50;99037.64;254494;1104;115738;-70
2021/07/30 19:37:07;;;;;;;4.08;3.68;;;;;;;18.95;58.14;99038.02;256339;1103;115037;-67
2021/07/30 19:42:10;;;;;;;8.77;3.97;;;;;;;18.80;58.50;99041.06;257191;1104;116491;-66
2021/07/30 19:47:13;;;;;;;4.70;3.70;;;;;;;18.65;59.01;99038.73;257184;1104;115828;-66
2021/07/30 19:52:17;;;;;;;4.80;3.77;;;;;;;18.56;59.42;99037.81;254212;1104;115891;-67
2021/07/30 19:57:20;;;;;;;5.30;3.18;;;;;;;18.59;59.91;99046.11;255225;1104;115464;-67
2021/07/30 20:02:23;;;;;;;3.55;3.10;;;;;;;18.51;60.11;99046.82;255464;1104;116022;-68
2021/07/30 20:07:26;;;;;;;7.28;3.40;;;;;;;18.28;60.08;99048.66;254090;1104;116003;-65
2021/07/30 20:12:30;;;;;;;10.48;3.85;;;;;;;18.03;60.59;99046.49;257162;1096;116140;-66
2021/07/30 20:17:33;;;;;;;6.83;3.98;;;;;;;17.84;60.93;99055.46;255296;1102;117511;-67
2021/07/30 20:22:37;;;;;;;10.30;4.83;;;;;;;17.77;61.60;99046.16;256532;1104;116074;-67
2021/07/30 20:27:41;;;;;;;9.50;4.30;;;;;;;17.83;62.01;99043.08;255141;1104;115957;-66
2021/07/30 20:32:45;;;;;;;18.35;6.58;;;;;;;17.79;61.84;99042.08;254748;1104;116258;-67
2021/07/30 20:37:48;;;;;;;29.30;4.80;;;;;;;17.70;62.38;99041.19;254616;1103;116080;-68
2021/07/30 20:42:53;;;;;;;8.35;4.55;;;;;;;17.57;62.61;99033.84;256136;1104;117335;-67
2021/07/30 20:47:57;;;;;;;3.88;3.45;;;;;;;17.40;62.76;99041.71;255654;1097;115406;-67
2021/07/30 20:53:00;;;;;;;6.97;4.13;;;;;;;17.25;63.36;99041.95;257185;1104;116162;-65
2021/07/30 20:58:04;;;;;;;7.03;3.68;;;;;;;17.13;63.48;99037.02;255521;1104;116784;-67
2021/07/30 21:03:07;;;;;;;5.70;4.00;;;;;;;17.02;63.76;99035.61;254181;1102;116629;-68
2021/07/30 21:08:12;;;;;;;5.10;4.05;;;;;;;16.89;64.22;99034.45;257279;1104;115917;-67
2021/07/30 21:13:17;;;;;;;6.93;4.28;;;;;;;16.76;64.39;99037.90;257404;1103;115990;-67
2021/07/30 21:18:20;;;;;;;9.10;4.23;;;;;;;16.77;64.84;99034.11;257399;1103;115898;-66
2021/07/30 21:23:23;;;;;;;4.80;4.33;;;;;;;16.78;65.07;99041.09;257335;1104;115491;-66
2021/07/30 21:28:26;;;;;;;4.70;3.80;;;;;;;16.66;65.23;99040.73;257338;1103;115851;-67
2021/07/30 21:33:30;;;;;;;6.13;5.05;;;;;;;16.54;65.42;99038.43;257161;1103;115886;-66
2021/07/30 21:38:33;;;;;;;6.33;4.50;;;;;;;16.50;65.68;99035.55;256795;1103;116617;-66
2021/07/30 21:43:37;;;;;;;7.80;4.80;;;;;;;16.45;66.14;99040.98;255932;1103;116012;-66
2021/07/30 21:48:41;;;;;;;8.47;5.93;;;;;;;16.43;66.19;99031.61;256151;1104;116410;-66
2021/07/30 21:53:44;;;;;;;5.85;4.40;;;;;;;16.41;66.30;99034.59;254221;1103;115865;-66
2021/07/30 21:58:48;;;;;;;5.03;3.98;;;;;;;16.28;66.03;99039.86;255505;1103;116065;-66
2021/07/30 22:03:51;;;;;;;8.10;5.35;;;;;;;16.13;66.65;99032.80;255391;1104;115259;-67
2021/07/30 22:08:54;;;;;;;6.68;4.83;;;;;;;16.04;66.58;99029.14;254653;1104;115614;-67
2021/07/30 22:14:01;;;;;;;8.78;5.13;;;;;;;15.93;66.87;99038.41;255211;1096;115449;-66
2021/07/30 22:19:05;;;;;;;7.15;6.38;;;;;;;15.85;67.47;99042.55;256059;1103;115620;-66
2021/07/30 22:24:09;;;;;;;10.83;6.95;;;;;;;15.92;67.66;99050.24;254627;1104;116351;-65
2021/07/30 22:29:20;;;;;;;11.08;7.30;;;;;;;16.00;67.68;99044.24;255089;1104;116803;-65
2021/07/30 22:34:24;;;;;;;7.70;6.03;;;;;;;15.92;67.48;99037.61;255631;1104;115940;-67
2021/07/30 22:39:28;;;;;;;5.98;4.05;;;;;;;15.70;67.57;99048.88;255287;1104;116005;-67
2021/07/30 22:44:31;;;;;;;5.68;5.10;;;;;;;15.50;67.99;99049.86;256454;1104;116119;-67
2021/07/30 22:49:35;;;;;;;6.80;6.03;;;;;;;15.41;68.22;99040.00;255860;1103;115761;-67
2021/07/30 22:54:37;;;;;;;7.70;6.90;;;;;;;15.38;68.50;99041.37;255410;1103;115978;-67
2021/07/30 22:59:41;;;;;;;6.35;5.50;;;;;;;15.33;68.26;99041.41;255906;1101;117844;-66
2021/07/30 23:04:44;;;;;;;17.10;8.28;;;;;;;15.27;68.55;99039.88;256397;1104;116751;-66
2021/07/30 23:09:48;;;;;;;11.25;7.85;;;;;;;15.32;69.52;99041.69;255049;1104;116442;-65
2021/07/30 23:14:52;;;;;;;9.63;7.00;;;;;;;15.33;68.86;99033.36;257279;1104;115845;-65
2021/07/30 23:19:58;;;;;;;13.33;7.53;;;;;;;15.25;68.94;99025.94;257331;1104;115881;-65
2021/07/30 23:25:01;;;;;;;11.13;6.40;;;;;;;15.12;68.98;99030.05;257393;1103;119075;-66